Time;durP1;ratioP1;P1;durP2;ratioP2;P2;SDS_P1;SDS_P2;PMS_P1;PMS_P2;Temp;Humidity;BMP_temperature;BMP_pressure;BME280_temperature;BME280_humidity;BME280_pressure;Samples;Min_cycle;Max_cycle;Signal;HPM_P1;HPM_P2
2021/09/06 00:01:13;;;;;;;937.65;838.75;;;;;;;;;;5026901;28;20057;-74
2021/09/06 00:03:39;;;;;;;931.97;833.38;;;;;;;;;;5009970;28;20038;-73
2021/09/06 00:06:05;;;;;;;934.17;835.28;;;;;;;;;;5007265;28;20029;-73
2021/09/06 00:08:31;;;;;;;941.40;842.10;;;;;;;;;;5002841;28;20036;-73
2021/09/06 00:11:04;;;;;;;932.55;833.25;;;;;;;;;;5009773;28;20167;-74
2021/09/06 00:13:30;;;;;;;937.35;837.65;;;;;;;;;;5005990;28;20445;-75
2021/09/06 00:15:57;;;;;;;946.78;846.53;;;;;;;;;;5005542;28;20419;-74
2021/09/06 00:18:23;;;;;;;931.72;832.05;;;;;;;;;;5026895;28;20052;-73
2021/09/06 00:20:49;;;;;;;929.97;830.15;;;;;;;;;;5008559;28;20057;-73
2021/09/06 00:23:15;;;;;;;930.17;830.33;;;;;;;;;;5024000;28;20083;-73
2021/09/06 00:25:44;;;;;;;927.38;827.35;;;;;;;;;;5009439;28;20116;-76
2021/09/06 00:28:10;;;;;;;917.35;817.97;;;;;;;;;;5003406;28;20386;-75
2021/09/06 00:30:37;;;;;;;922.70;822.88;;;;;;;;;;5010459;28;20036;-75
2021/09/06 00:33:03;;;;;;;917.92;817.72;;;;;;;;;;5008653;28;20028;-76
2021/09/06 00:35:29;;;;;;;921.45;821.05;;;;;;;;;;5026157;28;20025;-75
2021/09/06 00:37:55;;;;;;;907.35;807.50;;;;;;;;;;5008813;28;20512;-76
2021/09/06 00:40:21;;;;;;;907.63;807.72;;;;;;;;;;5027813;28;20060;-76
2021/09/06 00:42:47;;;;;;;895.75;793.78;;;;;;;;;;5008438;28;20087;-76
2021/09/06 00:45:13;;;;;;;889.90;785.03;;;;;;;;;;5003248;28;20064;-75
2021/09/06 00:47:40;;;;;;;888.72;783.38;;;;;;;;;;5004536;28;20036;-75
2021/09/06 00:50:08;;;;;;;887.17;778.17;;;;;;;;;;5025534;28;20026;-75
2021/09/06 00:52:35;;;;;;;886.55;778.25;;;;;;;;;;5024493;28;20075;-75
2021/09/06 00:55:01;;;;;;;883.88;772.45;;;;;;;;;;5008664;28;20025;-74
2021/09/06 00:57:27;;;;;;;882.97;773.85;;;;;;;;;;5021555;28;20939;-76
2021/09/06 00:59:53;;;;;;;883.25;774.60;;;;;;;;;;5026600;28;20037;-75
2021/09/06 01:02:19;;;;;;;885.15;778.17;;;;;;;;;;5024648;28;20439;-75
2021/09/06 01:04:45;;;;;;;885.83;776.83;;;;;;;;;;5027355;28;20544;-76
2021/09/06 01:07:11;;;;;;;886.53;779.70;;;;;;;;;;5000414;28;20504;-76
2021/09/06 01:09:37;;;;;;;884.90;770.88;;;;;;;;;;5026357;28;20315;-75
2021/09/06 01:12:03;;;;;;;887.90;780.78;;;;;;;;;;5008393;28;20461;-75
2021/09/06 01:14:30;;;;;;;878.53;757.10;;;;;;;;;;5001253;28;20128;-75
2021/09/06 01:16:56;;;;;;;885.35;766.47;;;;;;;;;;5008259;28;20113;-75
2021/09/06 01:19:22;;;;;;;893.50;778.50;;;;;;;;;;5026258;28;20021;-75
2021/09/06 01:21:48;;;;;;;887.65;767.00;;;;;;;;;;5025440;28;20039;-75
2021/09/06 01:24:16;;;;;;;884.63;764.80;;;;;;;;;;5007153;28;20041;-75
2021/09/06 01:26:42;;;;;;;884.80;761.65;;;;;;;;;;5025649;28;20033;-75
2021/09/06 01:29:08;;;;;;;883.17;758.50;;;;;;;;;;5023638;28;20410;-76
2021/09/06 01:31:34;;;;;;;886.47;763.97;;;;;;;;;;5003972;28;20030;-75
2021/09/06 01:34:00;;;;;;;881.80;753.58;;;;;;;;;;5008246;28;20025;-75
2021/09/06 01:36:26;;;;;;;888.63;763.15;;;;;;;;;;5026371;28;20581;-75
2021/09/06 01:38:52;;;;;;;884.65;757.10;;;;;;;;;;5025208;28;20029;-75
2021/09/06 01:41:18;;;;;;;882.42;755.25;;;;;;;;;;5006334;28;20095;-76
2021/09/06 01:43:44;;;;;;;882.92;753.97;;;;;;;;;;5000345;28;20045;-75
2021/09/06 01:46:10;;;;;;;883.45;753.03;;;;;;;;;;5009317;28;20026;-75
2021/09/06 01:48:36;;;;;;;876.45;739.95;;;;;;;;;;5025338;28;20101;-76
2021/09/06 01:51:02;;;;;;;884.72;756.80;;;;;;;;;;5004329;28;20026;-75
2021/09/06 01:53:28;;;;;;;880.80;743.92;;;;;;;;;;5024714;28;20026;-75
2021/09/06 01:55:54;;;;;;;879.78;744.70;;;;;;;;;;5008638;28;20033;-75
2021/09/06 01:58:20;;;;;;;881.55;742.92;;;;;;;;;;5002380;28;20094;-76
2021/09/06 02:00:46;;;;;;;878.63;747.50;;;;;;;;;;5026047;28;20033;-75
2021/09/06 02:03:12;;;;;;;879.80;740.33;;;;;;;;;;5025652;28;20087;-75
2021/09/06 02:05:38;;;;;;;886.35;750.33;;;;;;;;;;5007230;28;20041;-76
2021/09/06 02:08:04;;;;;;;877.50;735.78;;;;;;;;;;5006240;28;20021;-75
2021/09/06 02:10:30;;;;;;;876.55;735.55;;;;;;;;;;5006369;28;20034;-76
2021/09/06 02:12:56;;;;;;;884.25;739.45;;;;;;;;;;5024654;28;20025;-75
2021/09/06 02:15:22;;;;;;;880.70;733.20;;;;;;;;;;5005538;28;20032;-75
2021/09/06 02:17:48;;;;;;;879.63;733.10;;;;;;;;;;5025477;28;20034;-76
2021/09/06 02:20:14;;;;;;;879.33;732.50;;;;;;;;;;5024323;28;20033;-75
2021/09/06 02:22:40;;;;;;;879.95;729.40;;;;;;;;;;5006160;28;20095;-75
2021/09/06 02:25:06;;;;;;;883.53;738.88;;;;;;;;;;5006032;28;20543;-75
2021/09/06 02:27:32;;;;;;;881.10;734.30;;;;;;;;;;5001559;28;20347;-75
2021/09/06 02:29:58;;;;;;;878.42;735.17;;;;;;;;;;5027459;28;20033;-75
2021/09/06 02:32:24;;;;;;;883.70;740.25;;;;;;;;;;5007092;28;20026;-75
2021/09/06 02:34:50;;;;;;;878.67;729.50;;;;;;;;;;5009043;28;20061;-75
2021/09/06 02:37:16;;;;;;;878.25;723.90;;;;;;;;;;5007690;28;20042;-75
2021/09/06 02:39:42;;;;;;;887.65;737.70;;;;;;;;;;5011112;28;20025;-75
2021/09/06 02:42:08;;;;;;;887.88;739.90;;;;;;;;;;5009721;28;20374;-75
2021/09/06 02:44:35;;;;;;;882.97;732.25;;;;;;;;;;5028887;28;20033;-76
2021/09/06 02:47:01;;;;;;;884.20;732.28;;;;;;;;;;5010704;28;20028;-75
2021/09/06 02:49:26;;;;;;;885.90;735.20;;;;;;;;;;5023402;28;20309;-75
2021/09/06 02:51:52;;;;;;;879.85;724.90;;;;;;;;;;5027763;28;20105;-75
2021/09/06 02:54:18;;;;;;;881.38;727.05;;;;;;;;;;5011215;28;20021;-75
2021/09/06 02:56:45;;;;;;;885.05;737.58;;;;;;;;;;5028296;28;20029;-75
2021/09/06 02:59:11;;;;;;;883.03;722.05;;;;;;;;;;5016377;28;20053;-75
2021/09/06 03:01:37;;;;;;;886.75;730.40;;;;;;;;;;5006658;28;20040;-75
2021/09/06 03:04:03;;;;;;;886.70;736.08;;;;;;;;;;5028153;28;20108;-75
2021/09/06 03:06:29;;;;;;;883.00;721.25;;;;;;;;;;5009498;28;20478;-75
2021/09/06 03:08:55;;;;;;;883.25;723.75;;;;;;;;;;5018447;28;20033;-75
2021/09/06 03:11:24;;;;;;;891.38;738.65;;;;;;;;;;5012098;28;20028;-74
2021/09/06 03:13:52;;;;;;;882.47;720.08;;;;;;;;;;5010684;28;20116;-75
2021/09/06 03:16:18;;;;;;;880.03;714.22;;;;;;;;;;5003961;28;20148;-75
2021/09/06 03:18:44;;;;;;;884.50;726.70;;;;;;;;;;5026899;28;20503;-75
2021/09/06 03:21:10;;;;;;;880.78;714.80;;;;;;;;;;5027056;28;20037;-75
2021/09/06 03:23:36;;;;;;;882.53;719.63;;;;;;;;;;5024101;28;20062;-75
2021/09/06 03:26:02;;;;;;;878.88;713.35;;;;;;;;;;4994758;28;20536;-75
2021/09/06 03:28:28;;;;;;;883.10;725.78;;;;;;;;;;5007486;28;20037;-75
2021/09/06 03:30:54;;;;;;;881.92;724.33;;;;;;;;;;5010209;28;20057;-75
2021/09/06 03:33:20;;;;;;;884.45;731.83;;;;;;;;;;4998805;28;20039;-75
2021/09/06 03:35:46;;;;;;;881.42;726.33;;;;;;;;;;5010564;28;20025;-75
2021/09/06 03:38:12;;;;;;;886.38;736.30;;;;;;;;;;5026868;28;20034;-75
2021/09/06 03:40:38;;;;;;;883.22;725.63;;;;;;;;;;5010234;28;20037;-75
2021/09/06 03:43:04;;;;;;;880.65;723.50;;;;;;;;;;5008373;28;20659;-75
2021/09/06 03:45:30;;;;;;;884.22;733.40;;;;;;;;;;5010447;28;20470;-74
2021/09/06 03:47:56;;;;;;;1113.00;747.83;;;;;;;;;;5011163;28;20458;-75
2021/09/06 03:50:22;;;;;;;1999.90;820.15;;;;;;;;;;5028145;28;20029;-75
2021/09/06 03:52:49;;;;;;;1369.43;773.63;;;;;;;;;;5029519;28;20315;-75
2021/09/06 03:55:15;;;;;;;885.97;734.65;;;;;;;;;;5006179;28;20117;-75
2021/09/06 03:57:41;;;;;;;883.25;730.90;;;;;;;;;;5008587;28;20049;-75
2021/09/06 04:00:08;;;;;;;886.22;730.80;;;;;;;;;;5022012;28;20026;-75
2021/09/06 04:02:34;;;;;;;882.63;724.70;;;;;;;;;;5009529;28;20029;-75
2021/09/06 04:05:00;;;;;;;881.63;721.40;;;;;;;;;;5026790;28;20476;-75
2021/09/06 04:07:27;;;;;;;878.30;717.78;;;;;;;;;;5008328;28;20025;-75
2021/09/06 04:09:53;;;;;;;883.50;723.10;;;;;;;;;;5002803;28;20042;-75
2021/09/06 04:12:19;;;;;;;880.92;713.60;;;;;;;;;;5024336;28;20025;-75
2021/09/06 04:14:46;;;;;;;883.75;722.13;;;;;;;;;;5026899;28;21652;-75
2021/09/06 04:17:11;;;;;;;886.47;727.88;;;;;;;;;;5027111;28;20698;-75
2021/09/06 04:19:38;;;;;;;885.97;729.05;;;;;;;;;;5006851;28;20067;-75
2021/09/06 04:22:04;;;;;;;836.25;648.63;;;;;;;;;;5019913;28;20022;-75
2021/09/06 04:24:30;;;;;;;878.67;717.72;;;;;;;;;;5010039;28;20025;-75
2021/09/06 04:26:57;;;;;;;875.20;709.40;;;;;;;;;;5006605;28;20416;-75
2021/09/06 04:29:23;;;;;;;855.15;676.55;;;;;;;;;;5003041;28;20026;-75
2021/09/06 04:31:49;;;;;;;842.67;655.65;;;;;;;;;;5026074;28;20500;-75
2021/09/06 04:34:15;;;;;;;837.85;650.50;;;;;;;;;;5027105;28;20385;-75
2021/09/06 04:36:41;;;;;;;718.90;464.85;;;;;;;;;;5009241;28;20037;-75
2021/09/06 04:39:08;;;;;;;734.42;500.85;;;;;;;;;;5025525;28;20029;-74
2021/09/06 04:41:34;;;;;;;707.83;455.67;;;;;;;;;;5022616;28;20029;-75
2021/09/06 04:44:00;;;;;;;744.60;500.95;;;;;;;;;;5009298;28;20049;-75
2021/09/06 04:46:26;;;;;;;731.78;473.10;;;;;;;;;;5025035;28;20041;-75
2021/09/06 04:48:52;;;;;;;1999.90;999.90;;;;;;;;;;5027046;28;20037;-74
2021/09/06 04:51:18;;;;;;;765.58;515.10;;;;;;;;;;4999869;28;20438;-75
2021/09/06 04:53:47;;;;;;;584.50;286.50;;;;;;;;;;5008263;28;20025;-75
2021/09/06 04:56:13;;;;;;;689.47;404.58;;;;;;;;;;5026601;28;20089;-74
2021/09/06 04:58:39;;;;;;;767.63;537.38;;;;;;;;;;5007430;28;20033;-75
2021/09/06 05:01:05;;;;;;;763.88;533.55;;;;;;;;;;5023917;28;20083;-74
2021/09/06 05:03:31;;;;;;;755.78;514.85;;;;;;;;;;5027980;28;20037;-75
2021/09/06 05:05:59;;;;;;;762.17;533.03;;;;;;;;;;4994744;28;20033;-74
2021/09/06 05:08:28;;;;;;;765.33;549.40;;;;;;;;;;5025587;28;20463;-75
2021/09/06 05:10:54;;;;;;;777.47;572.28;;;;;;;;;;5025862;28;20443;-74
2021/09/06 05:13:20;;;;;;;779.78;565.80;;;;;;;;;;5025833;28;20401;-75
2021/09/06 05:15:46;;;;;;;794.70;591.97;;;;;;;;;;5007317;28;20036;-74
2021/09/06 05:18:12;;;;;;;790.78;583.25;;;;;;;;;;5006343;28;20108;-75
2021/09/06 05:20:39;;;;;;;815.53;614.78;;;;;;;;;;5018403;28;20034;-74
2021/09/06 05:23:05;;;;;;;812.88;610.90;;;;;;;;;;5008575;28;20132;-75
2021/09/06 05:25:31;;;;;;;819.22;618.17;;;;;;;;;;5004261;28;20120;-74
2021/09/06 05:27:57;;;;;;;813.13;604.92;;;;;;;;;;5024455;28;20109;-74
2021/09/06 05:30:23;;;;;;;812.75;598.15;;;;;;;;;;5007472;28;20022;-74
2021/09/06 05:32:49;;;;;;;811.70;606.92;;;;;;;;;;5001993;28;20030;-74
2021/09/06 05:35:15;;;;;;;812.58;609.03;;;;;;;;;;5025893;28;20076;-74
2021/09/06 05:37:41;;;;;;;817.28;623.90;;;;;;;;;;5020660;28;20034;-74
2021/09/06 05:40:07;;;;;;;823.00;632.35;;;;;;;;;;5008364;28;20080;-75
2021/09/06 05:42:33;;;;;;;821.60;628.92;;;;;;;;;;5009440;28;20469;-75
2021/09/06 05:44:59;;;;;;;826.22;641.65;;;;;;;;;;5004554;28;20032;-75
2021/09/06 05:47:25;;;;;;;822.50;629.25;;;;;;;;;;5004435;28;20805;-75
2021/09/06 05:49:51;;;;;;;813.17;628.63;;;;;;;;;;5025933;28;20509;-75
2021/09/06 05:52:17;;;;;;;818.40;640.92;;;;;;;;;;5025205;28;20038;-74
2021/09/06 05:54:43;;;;;;;1899.05;780.22;;;;;;;;;;5004231;28;20461;-74
2021/09/06 05:57:09;;;;;;;863.00;697.17;;;;;;;;;;5018641;28;20452;-75
2021/09/06 05:59:35;;;;;;;862.47;704.20;;;;;;;;;;5004916;28;20033;-75
2021/09/06 06:02:01;;;;;;;872.63;717.78;;;;;;;;;;5000183;28;20123;-75
2021/09/06 06:04:28;;;;;;;878.40;732.53;;;;;;;;;;5007176;28;20566;-75
2021/09/06 06:06:54;;;;;;;874.58;723.35;;;;;;;;;;5001467;28;20242;-75
2021/09/06 06:09:20;;;;;;;879.28;738.17;;;;;;;;;;5009576;28;20378;-74
2021/09/06 06:11:46;;;;;;;892.83;764.97;;;;;;;;;;5026570;28;20037;-75
2021/09/06 06:14:12;;;;;;;886.97;750.25;;;;;;;;;;5029920;28;20437;-75
2021/09/06 06:16:38;;;;;;;880.33;737.78;;;;;;;;;;5024960;28;20030;-75
2021/09/06 06:19:04;;;;;;;889.08;759.50;;;;;;;;;;5020412;28;20026;-74
2021/09/06 06:21:30;;;;;;;882.60;748.40;;;;;;;;;;5029122;28;20029;-75
2021/09/06 06:23:56;;;;;;;888.42;765.92;;;;;;;;;;5030557;28;20644;-74
2021/09/06 06:26:22;;;;;;;892.90;775.33;;;;;;;;;;5029978;28;20049;-75
2021/09/06 06:28:48;;;;;;;890.20;772.58;;;;;;;;;;5024114;28;20036;-75
2021/09/06 06:31:14;;;;;;;887.72;768.10;;;;;;;;;;5030100;28;20317;-75
2021/09/06 06:33:40;;;;;;;893.63;785.65;;;;;;;;;;5029709;28;20033;-75
2021/09/06 06:36:06;;;;;;;897.88;792.28;;;;;;;;;;5010314;28;20044;-75
2021/09/06 06:38:33;;;;;;;894.10;789.38;;;;;;;;;;5006061;28;20025;-75
2021/09/06 06:41:00;;;;;;;899.78;799.95;;;;;;;;;;5008085;28;20033;-75
2021/09/06 06:43:26;;;;;;;911.78;811.38;;;;;;;;;;5009985;28;20495;-75
2021/09/06 06:45:52;;;;;;;921.55;821.05;;;;;;;;;;5006938;28;20025;-75
2021/09/06 06:48:18;;;;;;;918.78;818.20;;;;;;;;;;5009795;28;20029;-75
2021/09/06 06:50:45;;;;;;;929.13;828.05;;;;;;;;;;5027079;28;20562;-75
2021/09/06 06:53:11;;;;;;;935.33;833.92;;;;;;;;;;5013604;28;20042;-75
2021/09/06 06:55:37;;;;;;;946.65;844.55;;;;;;;;;;5026750;28;20033;-75
2021/09/06 06:58:03;;;;;;;950.88;848.80;;;;;;;;;;5027713;28;20025;-75
2021/09/06 07:00:30;;;;;;;955.60;853.38;;;;;;;;;;5009506;28;20553;-75
2021/09/06 07:02:56;;;;;;;953.88;851.60;;;;;;;;;;5003047;28;20040;-75
2021/09/06 07:05:22;;;;;;;967.65;865.20;;;;;;;;;;5010390;28;20511;-75
2021/09/06 07:07:48;;;;;;;963.78;861.70;;;;;;;;;;5010434;28;20285;-76
2021/09/06 07:10:14;;;;;;;968.00;865.38;;;;;;;;;;5024538;28;20420;-74
2021/09/06 07:12:40;;;;;;;989.92;886.60;;;;;;;;;;5013051;28;20026;-75
2021/09/06 07:15:07;;;;;;;991.72;888.42;;;;;;;;;;5010860;28;20029;-75
2021/09/06 07:17:33;;;;;;;966.10;865.08;;;;;;;;;;5006096;28;20057;-74
2021/09/06 07:19:59;;;;;;;979.58;878.03;;;;;;;;;;5026970;28;20091;-74
2021/09/06 07:22:25;;;;;;;992.85;890.88;;;;;;;;;;5007108;28;20026;-74
2021/09/06 07:24:53;;;;;;;997.00;895.05;;;;;;;;;;5026415;28;20477;-73
2021/09/06 07:27:19;;;;;;;1004.97;902.33;;;;;;;;;;5024092;28;20040;-74
2021/09/06 07:29:45;;;;;;;867.63;776.40;;;;;;;;;;4997653;28;20030;-75
2021/09/06 07:32:11;;;;;;;909.90;814.92;;;;;;;;;;5010471;28;20053;-75
2021/09/06 07:34:38;;;;;;;944.35;847.53;;;;;;;;;;5022391;28;20511;-74
2021/09/06 07:37:08;;;;;;;973.92;875.97;;;;;;;;;;5003401;28;20026;-74
2021/09/06 07:39:35;;;;;;;969.13;871.13;;;;;;;;;;5006689;28;20029;-75
2021/09/06 07:42:01;;;;;;;1999.90;999.90;;;;;;;;;;5010103;28;20521;-73
2021/09/06 07:44:28;;;;;;;968.83;871.85;;;;;;;;;;5003998;28;20028;-74
2021/09/06 07:46:54;;;;;;;1018.90;917.75;;;;;;;;;;5027982;28;20060;-74
2021/09/06 07:49:20;;;;;;;1023.15;922.17;;;;;;;;;;5010410;28;20041;-74
2021/09/06 07:51:52;;;;;;;1027.30;926.53;;;;;;;;;;5008716;28;20044;-74
2021/09/06 07:54:19;;;;;;;1020.15;920.88;;;;;;;;;;5026441;28;20462;-73
2021/09/06 07:56:47;;;;;;;1032.78;932.35;;;;;;;;;;5009110;28;20082;-74
2021/09/06 07:59:13;;;;;;;1034.00;933.85;;;;;;;;;;5026719;28;20033;-73
2021/09/06 08:01:39;;;;;;;1053.70;952.58;;;;;;;;;;5025531;28;20064;-73
2021/09/06 08:04:05;;;;;;;1038.10;937.90;;;;;;;;;;5028671;28;20037;-73
2021/09/06 08:06:31;;;;;;;1041.80;940.95;;;;;;;;;;5025024;28;20385;-73
2021/09/06 08:08:58;;;;;;;1060.82;959.58;;;;;;;;;;5006770;28;20033;-73
2021/09/06 08:11:25;;;;;;;1067.03;964.92;;;;;;;;;;5011231;28;20398;-73
2021/09/06 08:13:51;;;;;;;1061.97;960.13;;;;;;;;;;5030478;28;20401;-73
2021/09/06 08:16:17;;;;;;;1063.85;961.75;;;;;;;;;;5027963;28;20026;-73
2021/09/06 08:18:43;;;;;;;1072.15;969.95;;;;;;;;;;5009962;28;20025;-74
2021/09/06 08:21:09;;;;;;;1073.90;971.28;;;;;;;;;;5026511;28;20032;-74
2021/09/06 08:23:35;;;;;;;1050.90;950.33;;;;;;;;;;5009529;28;20484;-74
2021/09/06 08:26:01;;;;;;;1063.80;962.85;;;;;;;;;;5005971;28;20026;-73
2021/09/06 08:28:27;;;;;;;1135.93;999.90;;;;;;;;;;5007240;28;20032;-73
2021/09/06 08:30:53;;;;;;;805.00;723.65;;;;;;;;;;5006000;28;20061;-74
2021/09/06 08:33:19;;;;;;;1999.90;999.90;;;;;;;;;;5022373;28;20035;-73
2021/09/06 08:35:47;;;;;;;1999.90;999.90;;;;;;;;;;4999009;28;20041;-76
2021/09/06 08:38:13;;;;;;;1999.90;999.90;;;;;;;;;;5027624;28;20029;-75
2021/09/06 08:40:39;;;;;;;1999.90;999.90;;;;;;;;;;5029439;28;20029;-73
2021/09/06 08:43:05;;;;;;;853.00;765.22;;;;;;;;;;5001787;28;20050;-73
2021/09/06 08:45:36;;;;;;;1999.90;999.90;;;;;;;;;;5001562;28;20038;-73
2021/09/06 08:48:02;;;;;;;1999.90;999.90;;;;;;;;;;4980285;28;20034;-73
2021/09/06 08:50:29;;;;;;;1999.90;999.90;;;;;;;;;;4991057;28;20025;-73
2021/09/06 08:52:55;;;;;;;1153.13;999.90;;;;;;;;;;4976471;28;20112;-76
2021/09/06 08:55:21;;;;;;;1157.28;999.90;;;;;;;;;;5004626;28;20026;-73
2021/09/06 08:57:47;;;;;;;1145.55;999.90;;;;;;;;;;4982887;28;20045;-73
2021/09/06 09:00:13;;;;;;;1156.25;999.90;;;;;;;;;;4999395;28;20161;-73
2021/09/06 09:02:41;;;;;;;1155.68;999.90;;;;;;;;;;4984262;28;20049;-73
2021/09/06 09:05:10;;;;;;;1149.75;999.90;;;;;;;;;;4984853;28;20045;-74
2021/09/06 09:07:39;;;;;;;1127.03;999.90;;;;;;;;;;5007952;28;20025;-74
2021/09/06 09:10:08;;;;;;;1538.82;997.33;;;;;;;;;;4984695;28;20045;-73
2021/09/06 09:12:34;;;;;;;1017.83;904.25;;;;;;;;;;4992528;28;20032;-73
2021/09/06 09:15:00;;;;;;;1190.70;999.90;;;;;;;;;;4990876;28;20030;-73
2021/09/06 09:17:27;;;;;;;1202.20;999.90;;;;;;;;;;4988161;28;20084;-73
2021/09/06 09:19:54;;;;;;;1200.93;999.90;;;;;;;;;;5000186;28;20033;-73
2021/09/06 09:22:31;;;;;;;1201.72;999.90;;;;;;;;;;5007371;28;20382;-73
2021/09/06 09:25:01;;;;;;;1200.07;999.90;;;;;;;;;;4984237;28;20050;-74
2021/09/06 09:27:27;;;;;;;;;;;;;;;;;;5000682;28;20030;-73
2021/09/06 09:29:53;;;;;;;1186.13;999.90;;;;;;;;;;4983561;28;19924;-73
2021/09/06 09:32:18;;;;;;;1191.70;999.90;;;;;;;;;;4979842;28;20027;-73
2021/09/06 09:34:44;;;;;;;1190.53;999.90;;;;;;;;;;5002704;28;20057;-73
2021/09/06 09:37:11;;;;;;;1197.25;999.90;;;;;;;;;;5000160;28;20080;-74
2021/09/06 09:39:38;;;;;;;1200.28;999.90;;;;;;;;;;5007674;28;20060;-74
2021/09/06 09:42:09;;;;;;;1198.85;999.90;;;;;;;;;;5000836;28;20355;-73
2021/09/06 09:44:45;;;;;;;1198.32;999.90;;;;;;;;;;4999723;28;20044;-73
2021/09/06 09:47:11;;;;;;;1196.25;999.90;;;;;;;;;;5008581;28;20441;-74
2021/09/06 09:49:38;;;;;;;1206.05;999.90;;;;;;;;;;5002708;28;20587;-74
2021/09/06 09:52:04;;;;;;;1213.45;999.90;;;;;;;;;;5022970;28;20026;-74
2021/09/06 09:54:30;;;;;;;1219.78;999.90;;;;;;;;;;5002758;28;20022;-74
2021/09/06 09:56:56;;;;;;;1243.38;999.90;;;;;;;;;;5006540;28;20096;-73
2021/09/06 09:59:22;;;;;;;1256.82;999.90;;;;;;;;;;5023325;28;20393;-73
2021/09/06 10:01:57;;;;;;;1265.30;999.90;;;;;;;;;;5007115;28;20029;-73
2021/09/06 10:04:24;;;;;;;1272.45;999.90;;;;;;;;;;5012157;28;20060;-73
2021/09/06 10:06:51;;;;;;;1292.45;999.90;;;;;;;;;;5028617;28;20373;-74
2021/09/06 10:09:17;;;;;;;1308.63;999.90;;;;;;;;;;5006554;28;20040;-73
2021/09/06 10:11:44;;;;;;;1310.68;999.90;;;;;;;;;;5019795;28;20033;-74
2021/09/06 10:14:21;;;;;;;1320.68;999.90;;;;;;;;;;5001613;28;20057;-74
2021/09/06 10:16:48;;;;;;;1323.13;999.90;;;;;;;;;;5010907;28;20065;-74
2021/09/06 10:19:15;;;;;;;1307.82;999.90;;;;;;;;;;5024203;28;20116;-74
2021/09/06 10:21:44;;;;;;;1316.18;999.90;;;;;;;;;;5025733;28;20031;-74
2021/09/06 10:24:14;;;;;;;1321.70;999.90;;;;;;;;;;5006796;28;20040;-74
2021/09/06 10:26:40;;;;;;;1319.63;999.90;;;;;;;;;;5007079;28;20098;-74
2021/09/06 10:29:20;;;;;;;1329.68;999.90;;;;;;;;;;5020326;28;21469;-73
2021/09/06 10:31:58;;;;;;;1327.70;999.90;;;;;;;;;;5020004;28;20025;-74
2021/09/06 10:34:24;;;;;;;1335.40;999.90;;;;;;;;;;5015746;28;20508;-74
2021/09/06 10:36:59;;;;;;;1323.68;999.90;;;;;;;;;;5001480;28;20049;-73
2021/09/06 10:39:26;;;;;;;1311.47;999.90;;;;;;;;;;5017593;28;20068;-74
2021/09/06 10:41:53;;;;;;;1305.53;999.90;;;;;;;;;;5002998;28;20037;-73
2021/09/06 10:44:19;;;;;;;1299.25;999.90;;;;;;;;;;4987442;28;20050;-74
2021/09/06 10:46:52;;;;;;;1259.85;999.90;;;;;;;;;;4988450;28;20513;-73
2021/09/06 10:49:22;;;;;;;1273.47;999.90;;;;;;;;;;5004362;28;20516;-73
2021/09/06 10:51:48;;;;;;;;;;;;;;;;;;5000305;28;20045;-72
2021/09/06 10:54:14;;;;;;;1265.78;999.90;;;;;;;;;;4981167;28;19913;-74
2021/09/06 10:56:40;;;;;;;1266.40;999.90;;;;;;;;;;5001792;28;20099;-74
2021/09/06 10:59:06;;;;;;;1279.18;999.90;;;;;;;;;;4990867;28;20537;-73
2021/09/06 11:01:32;;;;;;;1281.97;999.90;;;;;;;;;;4986641;28;20027;-74
2021/09/06 11:03:59;;;;;;;1291.70;999.90;;;;;;;;;;4982568;28;20062;-73
2021/09/06 11:06:26;;;;;;;1252.53;999.90;;;;;;;;;;4990983;28;20041;-73
2021/09/06 11:08:53;;;;;;;1324.50;999.90;;;;;;;;;;5008507;28;20029;-74
2021/09/06 11:11:32;;;;;;;1274.78;999.90;;;;;;;;;;5004819;28;20643;-73
2021/09/06 11:13:58;;;;;;;1265.72;999.90;;;;;;;;;;5011044;28;20029;-73
2021/09/06 11:16:33;;;;;;;1264.53;999.90;;;;;;;;;;4986748;28;20030;-74
2021/09/06 11:19:09;;;;;;;1505.72;999.90;;;;;;;;;;4991383;28;20036;-73
2021/09/06 11:21:38;;;;;;;1247.43;999.90;;;;;;;;;;4989069;28;20038;-73
2021/09/06 11:24:05;;;;;;;1220.13;999.90;;;;;;;;;;4992149;28;20053;-73
2021/09/06 11:26:33;;;;;;;1214.78;999.90;;;;;;;;;;5009342;28;20485;-73
2021/09/06 11:28:59;;;;;;;1387.13;999.90;;;;;;;;;;4989040;28;20059;-74
2021/09/06 11:31:26;;;;;;;1287.15;999.90;;;;;;;;;;4993876;28;20040;-74
2021/09/06 11:34:00;;;;;;;1283.68;999.90;;;;;;;;;;4980426;28;20022;-73
2021/09/06 11:36:27;;;;;;;1297.28;999.90;;;;;;;;;;4993592;28;20037;-74
2021/09/06 11:38:53;;;;;;;1299.82;999.90;;;;;;;;;;5005380;28;20437;-74
2021/09/06 11:41:19;;;;;;;1316.22;999.90;;;;;;;;;;5004596;28;20026;-73
2021/09/06 11:43:45;;;;;;;1317.43;999.90;;;;;;;;;;5001721;28;20146;-74
2021/09/06 11:46:14;;;;;;;1333.82;999.90;;;;;;;;;;5011305;28;20035;-73
2021/09/06 11:48:41;;;;;;;1337.77;999.90;;;;;;;;;;5023128;28;20445;-73
2021/09/06 11:51:08;;;;;;;1349.93;999.90;;;;;;;;;;5004261;28;20300;-74
2021/09/06 11:53:34;;;;;;;1361.13;999.90;;;;;;;;;;5006536;28;20037;-74
2021/09/06 11:56:00;;;;;;;1370.40;999.90;;;;;;;;;;5010267;28;20029;-73
2021/09/06 11:58:27;;;;;;;1377.63;999.90;;;;;;;;;;5024600;28;20040;-74
2021/09/06 12:00:53;;;;;;;1375.22;999.90;;;;;;;;;;5005657;28;20563;-74
2021/09/06 12:03:24;;;;;;;1288.28;999.90;;;;;;;;;;5009840;28;20037;-73
2021/09/06 12:05:51;;;;;;;1397.63;999.90;;;;;;;;;;5023096;28;20094;-74
2021/09/06 12:08:18;;;;;;;1392.00;999.90;;;;;;;;;;5005464;28;20084;-74
2021/09/06 12:10:45;;;;;;;1405.18;999.90;;;;;;;;;;5026809;28;20036;-74
2021/09/06 12:13:19;;;;;;;1408.88;999.90;;;;;;;;;;5009946;28;20230;-74
2021/09/06 12:15:56;;;;;;;1407.13;999.90;;;;;;;;;;5006575;28;20033;-74
2021/09/06 12:18:22;;;;;;;1393.55;999.90;;;;;;;;;;5002732;28;20294;-74
2021/09/06 12:21:00;;;;;;;1401.18;999.90;;;;;;;;;;5026125;28;20029;-74
2021/09/06 12:23:31;;;;;;;1385.93;999.90;;;;;;;;;;5004862;28;20084;-73
2021/09/06 12:25:57;;;;;;;1394.28;999.90;;;;;;;;;;5005464;28;20410;-74
2021/09/06 12:28:24;;;;;;;1405.53;999.90;;;;;;;;;;5002269;28;20079;-74
2021/09/06 12:31:06;;;;;;;1411.85;999.90;;;;;;;;;;5009736;28;20027;-74
2021/09/06 12:33:32;;;;;;;1413.65;999.90;;;;;;;;;;5024748;28;20025;-73
2021/09/06 12:36:02;;;;;;;1403.50;999.90;;;;;;;;;;5009585;28;20096;-74
2021/09/06 12:38:30;;;;;;;1390.15;999.90;;;;;;;;;;5031272;28;20037;-73
2021/09/06 12:40:56;;;;;;;1383.82;999.90;;;;;;;;;;5043924;28;20025;-73
2021/09/06 12:43:21;;;;;;;1383.05;999.90;;;;;;;;;;5021707;28;20129;-74
2021/09/06 12:45:48;;;;;;;1369.90;999.90;;;;;;;;;;5025825;28;20056;-74
2021/09/06 12:48:14;;;;;;;1366.93;999.90;;;;;;;;;;5027774;28;20026;-74
2021/09/06 12:50:40;;;;;;;1368.13;999.90;;;;;;;;;;5017344;28;20088;-72
2021/09/06 12:53:06;;;;;;;1348.55;999.90;;;;;;;;;;5018975;28;20022;-73
2021/09/06 12:55:32;;;;;;;1348.53;999.90;;;;;;;;;;5025478;28;20088;-74
2021/09/06 12:57:59;;;;;;;1341.18;999.90;;;;;;;;;;5015494;28;20448;-73
2021/09/06 13:00:25;;;;;;;1336.70;999.90;;;;;;;;;;5021422;28;20022;-74
2021/09/06 13:02:51;;;;;;;1335.25;999.90;;;;;;;;;;5026170;28;20022;-73
2021/09/06 13:05:17;;;;;;;1338.47;999.90;;;;;;;;;;5020364;28;20033;-73
2021/09/06 13:07:43;;;;;;;1333.80;999.90;;;;;;;;;;5011034;28;20037;-73
2021/09/06 13:10:10;;;;;;;1324.45;999.90;;;;;;;;;;5027117;28;20095;-74
2021/09/06 13:12:36;;;;;;;1334.88;999.90;;;;;;;;;;5021777;28;20056;-74
2021/09/06 13:15:03;;;;;;;1323.47;999.90;;;;;;;;;;5009538;28;20358;-74
2021/09/06 13:17:29;;;;;;;1322.07;999.90;;;;;;;;;;5011218;28;20125;-74
2021/09/06 13:19:55;;;;;;;1321.97;999.90;;;;;;;;;;5025865;28;20171;-74
2021/09/06 13:22:22;;;;;;;1322.03;999.90;;;;;;;;;;5010951;28;20115;-74
2021/09/06 13:24:48;;;;;;;1314.60;999.90;;;;;;;;;;5026647;28;20052;-74
2021/09/06 13:27:14;;;;;;;1310.72;999.90;;;;;;;;;;5023205;28;20025;-74
2021/09/06 13:29:40;;;;;;;1300.20;999.90;;;;;;;;;;5024618;28;20269;-74
2021/09/06 13:32:06;;;;;;;1309.78;999.90;;;;;;;;;;5019307;28;20027;-74
2021/09/06 13:34:32;;;;;;;1305.20;999.90;;;;;;;;;;5006743;28;20021;-74
2021/09/06 13:36:59;;;;;;;1289.93;999.90;;;;;;;;;;5022458;28;20018;-73
2021/09/06 13:39:25;;;;;;;1297.40;999.90;;;;;;;;;;5011219;28;20123;-73
2021/09/06 13:41:51;;;;;;;1302.25;999.90;;;;;;;;;;5025332;28;20079;-75
2021/09/06 13:44:17;;;;;;;1298.50;999.90;;;;;;;;;;5016437;28;20536;-74
2021/09/06 13:46:43;;;;;;;1300.00;999.90;;;;;;;;;;5024445;28;20556;-74